Map

Track Data

SID SEASON NUMBER BASIN SUBBASIN NAME ISO_TIME NATURE LAT LON WMO_WIND WMO_PRES WMO_AGENCY TRACK_TYPE DIST2LAND LANDFALL IFLAG USA_AGENCY USA_ATCF_ID USA_LAT USA_LON USA_RECORD USA_STATUS USA_WIND USA_PRES USA_SSHS USA_R34_NE USA_R34_SE USA_R34_SW USA_R34_NW USA_R50_NE USA_R50_SE USA_R50_SW USA_R50_NW USA_R64_NE USA_R64_SE USA_R64_SW USA_R64_NW USA_POCI USA_ROCI USA_RMW USA_EYE TOKYO_LAT TOKYO_LON TOKYO_GRADE TOKYO_WIND TOKYO_PRES TOKYO_R50_DIR TOKYO_R50_LONG TOKYO_R50_SHORT TOKYO_R30_DIR TOKYO_R30_LONG TOKYO_R30_SHORT TOKYO_LAND CMA_LAT CMA_LON CMA_CAT CMA_WIND CMA_PRES HKO_LAT HKO_LON HKO_CAT HKO_WIND HKO_PRES NEWDELHI_LAT NEWDELHI_LON NEWDELHI_GRADE NEWDELHI_WIND NEWDELHI_PRES NEWDELHI_CI NEWDELHI_DP NEWDELHI_POCI REUNION_LAT REUNION_LON REUNION_TYPE REUNION_WIND REUNION_PRES REUNION_TNUM REUNION_CI REUNION_RMW REUNION_R34_NE REUNION_R34_SE REUNION_R34_SW REUNION_R34_NW REUNION_R50_NE REUNION_R50_SE REUNION_R50_SW REUNION_R50_NW REUNION_R64_NE REUNION_R64_SE REUNION_R64_SW REUNION_R64_NW BOM_LAT BOM_LON BOM_TYPE BOM_WIND BOM_PRES BOM_TNUM BOM_CI BOM_RMW BOM_R34_NE BOM_R34_SE BOM_R34_SW BOM_R34_NW BOM_R50_NE BOM_R50_SE BOM_R50_SW BOM_R50_NW BOM_R64_NE BOM_R64_SE BOM_R64_SW BOM_R64_NW BOM_ROCI BOM_POCI BOM_EYE BOM_POS_METHOD BOM_PRES_METHOD NADI_LAT NADI_LON NADI_CAT NADI_WIND NADI_PRES WELLINGTON_LAT WELLINGTON_LON WELLINGTON_WIND WELLINGTON_PRES DS824_LAT DS824_LON DS824_STAGE DS824_WIND DS824_PRES TD9636_LAT TD9636_LON TD9636_STAGE TD9636_WIND TD9636_PRES TD9635_LAT TD9635_LON TD9635_WIND TD9635_PRES TD9635_ROCI NEUMANN_LAT NEUMANN_LON NEUMANN_CLASS NEUMANN_WIND NEUMANN_PRES MLC_LAT MLC_LON MLC_CLASS MLC_WIND MLC_PRES USA_GUST BOM_GUST BOM_GUST_PER REUNION_GUST REUNION_GUST_PER USA_SEAHGT USA_SEARAD_NE USA_SEARAD_SE USA_SEARAD_SW USA_SEARAD_NW STORM_SPEED STORM_DIR
1911059N06144 1911 17 WP MM NOT_NAMED 1911-02-27 16:00:00 NR 6.20000 143.600 main 988 988 __________O___ -1 6.20000 143.600 7 25 289
1911059N06144 1911 17 WP MM NOT_NAMED 1911-02-27 18:00:00 NR 6.46677 142.813 main 1032 1018 __________P___ -1 6.46677 142.813 7 24 289
1911059N06144 1911 17 WP MM NOT_NAMED 1911-02-27 21:00:00 NR 6.86572 141.683 main 1028 1019 __________P___ -1 6.86572 141.683 7 23 291
1911059N06144 1911 17 WP MM NOT_NAMED 1911-02-28 00:00:00 NR 7.26454 140.685 main 1035 1029 __________P___ -1 7.26454 140.685 7 19 294
1911059N06144 1911 17 WP MM NOT_NAMED 1911-02-28 03:00:00 NR 7.66543 139.900 main 1050 1046 __________P___ -1 7.66543 139.900 7 17 299
1911059N06144 1911 17 WP MM NOT_NAMED 1911-02-28 04:00:00 NR 7.80000 139.700 main 1051 1047 __________O___ -1 7.80000 139.700 7 13 309
1911059N06144 1911 17 WP MM NOT_NAMED 1911-02-28 06:00:00 NR 8.07126 139.401 main 1070 1066 __________P___ -1 8.07126 139.401 7 10 322
1911059N06144 1911 17 WP MM NOT_NAMED 1911-02-28 09:00:00 NR 8.48538 139.167 main 1104 1104 __________P___ -1 8.48538 139.167 7 9 342
1911059N06144 1911 17 WP MM NOT_NAMED 1911-02-28 12:00:00 NR 8.91081 139.118 main 1143 1143 __________P___ -1 8.91081 139.118 7 9 2
1911059N06144 1911 17 WP MM NOT_NAMED 1911-02-28 15:00:00 NR 9.35009 139.173 main 1200 1200 __________P___ -1 9.35009 139.173 7 9 8
1911059N06144 1911 17 WP MM NOT_NAMED 1911-02-28 16:00:00 NR 9.50000 139.200 main 1210 1210 __________O___ -1 9.50000 139.200 7 10 3
1911059N06144 1911 17 WP MM NOT_NAMED 1911-02-28 18:00:00 NR 9.83404 139.196 main 1242 1252 __________P___ -1 9.83404 139.196 7 10 3
1911059N06144 1911 17 WP MM NOT_NAMED 1911-02-28 21:00:00 NR 10.3484 139.241 main 1295 1306 __________P___ -1 10.3484 139.241 7 10 7
1911059N06144 1911 17 WP MM NOT_NAMED 1911-03-01 00:00:00 NR 10.8427 139.333 main 1352 1362 __________P___ -1 10.8427 139.333 7 10 13
1911059N06144 1911 17 WP MM NOT_NAMED 1911-03-01 03:00:00 NR 11.2761 139.455 main 1412 1412 __________P___ -1 11.2761 139.455 7 9 16
1911059N06144 1911 17 WP MM NOT_NAMED 1911-03-01 04:00:00 NR 11.4000 139.500 main 1422 1422 __________O___ -1 11.4000 139.500 7 7 23
1911059N06144 1911 17 WP MM NOT_NAMED 1911-03-01 06:00:00 NR 11.5988 139.588 main 1447 1447 __________P___ -1 11.5988 139.588 7 6 29
1911059N06144 1911 17 WP MM NOT_NAMED 1911-03-01 09:00:00 NR 11.8276 139.739 main 1472 1472 __________P___ -1 11.8276 139.739 7 5 37
1911059N06144 1911 17 WP MM NOT_NAMED 1911-03-01 12:00:00 NR 12.0010 139.900 main 1500 1500 __________P___ -1 12.0010 139.900 7 4 43
1911059N06144 1911 17 WP MM NOT_NAMED 1911-03-01 15:00:00 NR 12.1502 140.053 main 1528 1528 __________P___ -1 12.1502 140.053 7 4 45
1911059N06144 1911 17 WP MM NOT_NAMED 1911-03-01 16:00:00 NR 12.2000 140.100 main 1528 1528 __________O___ -1 12.2000 140.100 7 4 33
1911059N06144 1911 17 WP MM NOT_NAMED 1911-03-01 18:00:00 NR 12.3197 140.168 main 1542 1542 __________P___ -1 12.3197 140.168 7 4 28
1911059N06144 1911 17 WP MM NOT_NAMED 1911-03-01 21:00:00 NR 12.4929 140.256 main 1567 1567 __________P___ -1 12.4929 140.256 7 4 27
1911059N06144 1911 17 WP MM NOT_NAMED 1911-03-02 00:00:00 NR 12.6641 140.346 main 1588 1592 __________P___ -1 12.6641 140.346 7 4 29
1911059N06144 1911 17 WP MM NOT_NAMED 1911-03-02 03:00:00 NR 12.8395 140.456 main 1606 1606 __________P___ -1 12.8395 140.456 7 4 33
1911059N06144 1911 17 WP MM NOT_NAMED 1911-03-02 04:00:00 NR 12.9000 140.500 main 1614 1614 __________O___ -1 12.9000 140.500 7 5 40
1911059N06144 1911 17 WP MM NOT_NAMED 1911-03-02 06:00:00 NR 13.0303 140.621 main 1626 1626 __________P___ -1 13.0303 140.621 7 6 44
1911059N06144 1911 17 WP MM NOT_NAMED 1911-03-02 09:00:00 NR 13.2321 140.828 main 1650 1650 __________P___ -1 13.2321 140.828 7 6 45
1911059N06144 1911 17 WP MM NOT_NAMED 1911-03-02 12:00:00 NR 13.4360 141.043 main 1674 1685 __________P___ -1 13.4360 141.043 7 6 45
1911059N06144 1911 17 WP MM NOT_NAMED 1911-03-02 15:00:00 NR 13.6355 141.242 main 1698 1709 __________P___ -1 13.6355 141.242 7 5 44
1911059N06144 1911 17 WP MM NOT_NAMED 1911-03-02 16:00:00 NR 13.7000 141.300 main 1711 1711 __________O___ -1 13.7000 141.300 7 5 36
1911059N06144 1911 17 WP MM NOT_NAMED 1911-03-02 18:00:00 NR 13.8223 141.382 main 1723 1723 __________P___ -1 13.8223 141.382 7 4 30
1911059N06144 1911 17 WP MM NOT_NAMED 1911-03-02 21:00:00 NR 13.9994 141.479 main 1737 1737 __________P___ -1 13.9994 141.479 7 4 27
1911059N06144 1911 17 WP MM NOT_NAMED 1911-03-03 00:00:00 NR 14.1719 141.565 main 1752 1752 __________P___ -1 14.1719 141.565 7 4 27
1911059N06144 1911 17 WP MM NOT_NAMED 1911-03-03 03:00:00 NR 14.3428 141.662 main 1764 1766 __________P___ -1 14.3428 141.662 7 4 30
1911059N06144 1911 17 WP MM NOT_NAMED 1911-03-03 04:00:00 NR 14.4000 141.700 main 1766 1766 __________O___ -1 14.4000 141.700 7 4 37
1911059N06144 1911 17 WP MM NOT_NAMED 1911-03-03 06:00:00 NR 14.5193 141.800 main 1779 1779 __________P___ -1 14.5193 141.800 7 5 41
1911059N06144 1911 17 WP MM NOT_NAMED 1911-03-03 09:00:00 NR 14.6983 141.968 main 1804 1804 __________P___ -1 14.6983 141.968 7 5 44
1911059N06144 1911 17 WP MM NOT_NAMED 1911-03-03 12:00:00 NR 14.8746 142.150 main 1830 1830 __________P___ -1 14.8746 142.150 7 5 46
1911059N06144 1911 17 WP MM NOT_NAMED 1911-03-03 15:00:00 NR 15.0450 142.338 main 1842 1844 __________P___ -1 15.0450 142.338 7 5 47
1911059N06144 1911 17 WP MM NOT_NAMED 1911-03-03 16:00:00 NR 15.1000 142.400 main 1855 1855 __________O___ -1 15.1000 142.400 7 5 48
1911059N06144 1911 17 WP MM NOT_NAMED 1911-03-03 18:00:00 NR 15.2068 142.522 main 1867 1867 __________P___ -1 15.2068 142.522 7 5 48
1911059N06144 1911 17 WP MM NOT_NAMED 1911-03-03 21:00:00 NR 15.3603 142.699 main 1891 1891 __________P___ -1 15.3603 142.699 7 5 48
1911059N06144 1911 17 WP MM NOT_NAMED 1911-03-04 00:00:00 NR 15.5080 142.872 main 1914 1914 __________P___ -1 15.5080 142.872 7 4 48
1911059N06144 1911 17 WP MM NOT_NAMED 1911-03-04 03:00:00 NR 15.6522 143.043 main 1928 1939 __________P___ -1 15.6522 143.043 7 4 49
1911059N06144 1911 17 WP MM NOT_NAMED 1911-03-04 04:00:00 NR 15.7000 143.100 main 1939 __________O___ -1 15.7000 143.100 7 4 46

Digital Typhoon Data and Search

About IBTrACS Database

This database is a web-friendly format of International Best Track Archive for Climate Stewardship (IBTrACS), a global best track data archive curated by NOAA dating back to 1842.

Updated: 2021-12-03